メインページ
METAR-TAF:

METAR-TAF

空港 :

ユマ, アリゾナ州, アメリカ合衆国

緯度: 32-37-25N, 経度: 113-45-50W, 海抜: 64m

現時点の気象観測

当レポートは42分前の03:57(UTC)に作成
無風
気温 16°C
湿度 27%
気圧 1015 hPa
視程: 16.1km
晴天

METAR: KNYL 170357Z AUTO 00000KT 10SM CLR 16/M03 A2996 RMK AO2 SLP144 T01611028 $

時間: 21:39 (04:39 UTC)

予報

予報は17日の 03時(UTC)から 18日の 03時(UTC)まで有効
変向風 5kt
視程10km以上
高度2000ftの雲は散在している
17日の 1730時(UTC)から
の風 5kt
視程10km以上
高度25000ftの雲は散在している

TAF: KNYL 1703/1803 VRB05KT 9999 SCT020 QNH29993INS FM171730 17005KT 9999 SCT250 QNH2993INS T10/1713Z T26/1723Z AUTOMATED SENSOR METWATCH 1703Z/1915Z

4,000以上の空港の気象観測と天気予報(METAR報とTAF報)

利用可能な観測所は地図上に黄色い丸と赤い丸で示す。

丸の上にカーソルを重ねると観測所名を参照できる。

次にクリックすると気象観測と天気予報を参照できる。

マップの切り替え:黒色「×」印の緑ボタンをクリックして拡大、「-」印の緑ボタンをクリックして縮小、緑色の三角印をクリックして隣りの地図に切り替え


METAR-TAF: